• Join FlightAware (Why Join?)
  • Login
  • US Flag 
07:09PM EST


 

Airport Tracker/Info


-or-


 

Live Flight TrackerFlight Track Log ✈ EJA142 ✈ 18-Feb-2014 ✈ KTEB - KPBI

Flight Track Log - Related Links

Times and Time Zones

All times are in EST time to prevent confusion due to time zone crossing. See the EJA142 flight status page for this flight to view local times or setup timezone preferences in your user account.

Time Position Orientation Groundspeed Altitude Reporting Facility
EST Latitude Longitude Course Direction KTS MPH feet Rate Location/Type
06:12PM 40.8333 -74.0833 246° West 159 183 1,500  Level New York TRACON
06:13PM 40.8167 -74.1333 246° West 180 207 1,500 840 Level New York TRACON
06:14PM 40.8167 -74.2167 270° West 221 254 3,200 2,220 Climbing New York TRACON
06:15PM 40.7667 -74.2667 217° Southwest 274 315 6,000 2,580 Climbing New York TRACON
06:16PM 40.6833 -74.2667 180° South 291 335 8,400 3,240 Climbing New York TRACON
06:17PM 40.6000 -74.2667 180° South 315 362 12,500 3,000 Climbing New York TRACON
06:18PM 40.4342 -74.2231 169° South 393 452 16,400 2,400 Climbing New York Center
06:19PM 40.3292 -74.1714 159° South 435 501 18,900 2,160 Climbing New York Center
06:22PM 40.1075 -74.3817 216° Southwest 369 425 24,000 1,440 Climbing Washington Center
06:23PM 40.0167 -74.4644 215° Southwest 397 457 24,000 600 Level Washington Center
06:24PM 39.9256 -74.5444 214° Southwest 402 463 25,200 1,860 Climbing Washington Center
06:25PM 39.8306 -74.6322 215° Southwest 407 468 27,700 1,740 Climbing Washington Center
06:26PM 39.7311 -74.7256 216° Southwest 421 484 28,800 1,260 Climbing Washington Center
06:27PM 39.6525 -74.7992 216° Southwest 437 503 30,300 1,680 Climbing Washington Center
06:28PM 39.5406 -74.8972 214° Southwest 444 511 32,200 1,740 Climbing Washington Center
06:29PM 39.4431 -74.9842 215° Southwest 444 511 33,800 1,500 Climbing Washington Center
06:30PM 39.3478 -75.0683 214° Southwest 438 504 35,300 1,080 Climbing Washington Center
06:31PM 39.2542 -75.1467 213° Southwest 422 486 36,000 300 Climbing Washington Center
06:32PM 39.1439 -75.1983 200° South 415 478 36,000 240 Level Washington Center
06:33PM 39.0378 -75.2550 203° Southwest 420 483 36,500 900 Climbing Washington Center
06:34PM 38.9297 -75.3061 200° South 420 483 37,800 1,140 Climbing Washington Center
06:35PM 38.8150 -75.3706 204° Southwest 425 489 38,900 1,080 Climbing Washington Center
06:36PM 38.6983 -75.4319 202° Southwest 447 514 40,000 1,080 Climbing Washington Center
06:37PM 38.5817 -75.4881 201° Southwest 452 520 41,100 1,140 Climbing Washington Center
06:38PM 38.4672 -75.5492 203° Southwest 453 521 42,400 900 Climbing Washington Center
06:39PM 38.3567 -75.6050 202° Southwest 448 516 43,000 240 Climbing Washington Center
06:40PM 38.2378 -75.6606 200° South 448 516 43,000  Level Washington Center
06:41PM 38.1250 -75.7211 203° Southwest 454 522 43,000  Level Washington Center
06:42PM 38.0042 -75.7919 205° Southwest 448 516 43,000  Level Washington Center
06:43PM 37.8975 -75.8392 199° South 448 516 43,000  Level Washington Center
06:44PM 37.7806 -75.8967 201° Southwest 453 521 43,000  Level Washington Center
06:45PM 37.6533 -75.9669 204° Southwest 453 521 43,000  Level Washington Center
06:46PM 37.5364 -76.0267 202° Southwest 459 528 43,000  Level Washington Center
06:47PM 37.4256 -76.0808 201° Southwest 464 534 43,000  Level Washington Center
06:48PM 37.3064 -76.1403 202° Southwest 464 534 43,000  Level Washington Center
06:49PM 37.1872 -76.1942 200° South 464 534 43,000  Level Washington Center
06:50PM 37.0658 -76.2531 201° Southwest 464 534 43,000  Level Washington Center
06:51PM 36.9489 -76.3117 202° Southwest 464 534 43,000  Level Washington Center
06:52PM 36.8317 -76.3706 202° Southwest 464 534 43,000  Level Washington Center
06:53PM 36.7122 -76.4289 201° Southwest 464 534 43,000  Level Washington Center
06:54PM 36.5969 -76.4897 203° Southwest 458 527 43,000  Level Washington Center
06:55PM 36.4756 -76.5478 201° Southwest 458 527 43,000  Level Washington Center
06:56PM 36.3561 -76.6056 201° Southwest 458 527 43,000  Level Washington Center
06:57PM 36.2347 -76.6633 201° Southwest 458 527 43,000  Level Washington Center
06:58PM 36.1175 -76.7183 201° Southwest 458 527 43,000  Level Washington Center
06:59PM 36.0000 -76.7756 202° Southwest 458 527 43,000  Level Washington Center
07:00PM 35.8825 -76.8328 202° Southwest 458 527 43,000  Level Washington Center
07:01PM 35.7650 -76.8872 201° Southwest 458 527 43,000  Level Washington Center
07:02PM 35.6478 -76.9442 202° Southwest 458 527 43,000 120 Level Washington Center
07:03PM 35.5217 -77.0058 202° Southwest 452 520 43,300 360 Climbing Washington Center
07:04PM 35.4042 -77.0625 201° Southwest 458 527 43,800 420 Climbing Washington Center
07:05PM 35.2825 -77.1161 200° South 458 527 44,200 480 Climbing Washington Center
07:06PM 35.1628 -77.1722 201° Southwest 464 534 44,800 360 Climbing Washington Center
07:07PM 35.0431 -77.2308 202° Southwest 464 534 45,000 60 Climbing Washington Center
07:08PM 34.9403 -77.2769 200° South 464 534 45,000  Level Washington Center
07:09PM 34.8122 -77.3400 202° Southwest 458 527 45,000  Level Washington Center
07:10PM 34.6944 -77.3956 201° Southwest 458 527 45,000  Level Washington Center
07:11PM 34.5789 -77.4511 202° Southwest 453 521 45,000  Level Washington Center
07:12PM 34.4550 -77.4911 195° South 453 521 45,000  Level Washington Center
07:13PM 34.3333 -77.5311 195° South 453 521 45,000  Level Washington Center
07:14PM 34.2097 -77.5683 194° South 459 528 45,000  Level Washington Center
07:15PM 34.0742 -77.6106 194° South 481 554 45,000  Level Jacksonville Center
07:16PM 33.9528 -77.6478 194° South 474 545 45,000  Level Jacksonville Center
07:17PM 33.8292 -77.6903 196° South 469 540 45,000  Level Jacksonville Center
07:18PM 33.7058 -77.7300 195° South 469 540 45,000  Level Jacksonville Center
07:19PM 33.5800 -77.7697 195° South 469 540 45,000  Level Jacksonville Center
07:20PM 33.4586 -77.8092 195° South 469 540 45,000  Level Jacksonville Center
07:21PM 33.3347 -77.8461 194° South 464 534 45,000  Level Jacksonville Center
07:22PM 33.2133 -77.8853 195° South 464 534 45,000  Level Jacksonville Center
07:23PM 33.0897 -77.9267 196° South 464 534 45,000  Level Jacksonville Center
07:24PM 32.9658 -77.9633 194° South 464 534 45,000  Level Jacksonville Center
07:25PM 32.8464 -77.9994 194° South 464 534 45,000  Level Jacksonville Center
07:26PM 32.7247 -78.0358 194° South 459 528 45,000  Level Jacksonville Center
07:27PM 32.6008 -78.0744 195° South 459 528 45,000  Level Jacksonville Center
07:28PM 32.4792 -78.1153 196° South 454 522 45,000  Level Jacksonville Center
07:29PM 32.3575 -78.1539 195° South 454 522 45,000  Level Jacksonville Center
07:30PM 32.2358 -78.1894 194° South 454 522 45,000  Level Jacksonville Center
07:31PM 32.1139 -78.2253 194° South 449 517 45,000  Level Jacksonville Center
07:32PM 32.0047 -78.2603 195° South 455 524 45,000  Level Jacksonville Center
07:33PM 31.8831 -78.3031 197° South 455 524 45,000  Level Jacksonville Center
07:34PM 31.7611 -78.3408 195° South 449 517 45,000  Level Jacksonville Center
07:35PM 31.6433 -78.3758 194° South 449 517 45,000  Level Jacksonville Center
07:36PM 31.5258 -78.4156 196° South 449 517 45,000  Level Jacksonville Center
07:37PM 31.4061 -78.4556 196° South 449 517 45,000  Level Jacksonville Center
07:38PM 31.2906 -78.4900 194° South 449 517 45,000  Level Jacksonville Center
07:39PM 31.1708 -78.5322 197° South 444 511 45,000  Level Jacksonville Center
07:40PM 31.0531 -78.5667 194° South 449 517 45,000  Level Jacksonville Center
07:41PM 30.8486 -78.6306 195° South 422 486 45,000  Level Miami Center
07:42PM 30.7294 -78.6694 196° South 428 493 45,000  Level Miami Center
07:43PM 30.6103 -78.7061 195° South 445 512 45,000  Level Miami Center
07:44PM 30.4950 -78.7497 198° South 445 512 45,000  Level Miami Center
07:45PM 30.3714 -78.7908 196° South 445 512 45,000  Level Miami Center
07:46PM 30.2542 -78.8344 198° South 445 512 45,000  Level Miami Center
07:47PM 30.1389 -78.8753 197° South 450 518 45,000  Level Miami Center
07:48PM 30.0383 -78.9094 196° South 450 518 45,000  Level Miami Center
07:49PM 29.9064 -78.9619 199° South 450 518 45,000  Level Miami Center
07:50PM 29.7889 -79.0075 199° South 455 524 45,000  Level Miami Center
07:51PM 29.6511 -79.0192 184° South 466 536 45,000  Level Miami Center
07:52PM 29.5214 -79.0403 188° South 473 544 45,000  Level Miami Center
07:53PM 29.4019 -79.0689 192° South 461 531 45,000  Level Miami Center
07:54PM 29.2764 -79.0950 190° South 469 540 45,000 -360 Level Miami Center
07:55PM 29.1406 -79.1208 189° South 469 540 44,300 -960 Descending Miami Center
07:56PM 29.0089 -79.1394 187° South 464 534 43,100 -1,680 Descending Miami Center
07:57PM 28.8831 -79.1653 190° South 470 541 41,000 -2,160 Descending Miami Center
07:58PM 28.7492 -79.1908 190° South 476 548 38,800 -2,280 Descending Miami Center
07:59PM 28.6217 -79.2119 188° South 476 548 36,500 -2,340 Descending Miami Center
08:00PM 28.4856 -79.2350 188° South 487 560 34,200 -2,340 Descending Miami Center
08:01PM 28.3514 -79.2628 190° South 487 560 31,900 -2,340 Descending Miami Center
08:02PM 28.2194 -79.2858 189° South 492 566 29,600 -2,340 Descending Miami Center
08:03PM 28.0814 -79.3089 188° South 492 566 27,300 -2,340 Descending Miami Center
08:04PM 27.9494 -79.3319 189° South 486 559 25,000 -2,220 Descending Miami Center
08:05PM 27.8364 -79.3531 189° South 476 548 22,900 -2,100 Descending Miami Center
08:06PM 27.7308 -79.4139 207° Southwest 434 499 20,800 -2,280 Descending Miami Center
08:07PM 27.6250 -79.4983 215° Southwest 429 494 18,400 -2,220 Descending Miami Center
08:08PM 27.5339 -79.5689 214° Southwest 419 482 16,400 -1,800 Descending Miami Center
08:09PM 27.4533 -79.6325 215° Southwest 377 434 14,800 -1,620 Descending Miami Center
08:10PM 27.3897 -79.6825 215° Southwest 337 388 13,200 -1,500 Descending Miami Center
08:11PM 27.3197 -79.7367 215° Southwest 317 365 11,800 -1,500 Descending Miami Center
08:12PM 27.2478 -79.7933 215° Southwest 298 343 10,200 -1,500 Descending Miami Center
08:13PM 27.1819 -79.8456 215° Southwest 298 343 8,800 -1,320 Descending Miami Center
08:14PM 27.1142 -79.8903 210° Southwest 298 343 7,600 -1,380 Descending Miami Center
08:15PM 27.0508 -79.9261 207° Southwest 284 327 6,100 -1,500 Descending Miami Center
08:16PM 26.9808 -79.9661 207° Southwest 284 327 4,700 -1,080 Descending Miami Center
08:17PM 26.9150 -80.0181 215° Southwest 278 320 4,000 -360 Descending Miami Center
08:18PM 26.8642 -80.0608 217° Southwest 252 290 4,000 -60 Level Miami Center
08:19PM 26.8131 -80.1036 217° Southwest 234 269 3,900 -120 Descending Miami Center
08:21PM 26.7895 -80.2432 265° West  Level FlightAware Approximate
08:28PM 26.6832 -80.0956 110° East  Level Estimated
08:29PM 26.6832 -80.0956 110° East  Level Estimated
08:30PM 26.6832 -80.0956 110° East  Level Estimated
08:31PM 26.6832 -80.0956 110° East  Level Estimated
08:32PM 26.6832 -80.0956 110° East  Level Estimated
08:33PM 26.6832 -80.0956 110° East  Level Estimated
08:34PM 26.6832 -80.0956 110° East  Level Estimated
08:35PM 26.6832 -80.0956 110° East  Level Estimated
08:36PM 26.6832 -80.0956 110° East  Level Estimated
08:37PM 26.6832 -80.0956 110° East  Level Estimated